Terminal Aerodrome Forecast
Issued by NWS

Home | Current Version | Previous Version | Text Only | Print | Product List | Glossary On
Versions: 1 2 3 4 5 6 7 8 9 10 11 12 13 14
000
FTUS45 KRIW 011123
TAFCPR
TAF
KCPR 011123Z 0112/0212 30006KT P6SM SCT150
     FM012300 01011KT P6SM VCTS SCT080CB BKN110
     FM020500 03006KT P6SM BKN110=

USA.gov is the U.S. government's official web portal to all federal, state and local government web resources and services.